Terminal Aerodrome Forecast
Issued by NWS

Home | Current Version | Previous Version | Text Only | Print | Product List | Glossary On
Versions: 1 2 3 4 5 6 7 8 9 10 11 12 13
000
FTUS45 KREV 300915 AAA
TAFTRK
TAF AMD
KTRK 300915Z 3009/3106 22011KT P6SM -SHRA BKN035 OVC060
     FM301100 21012G25KT 5SM -SHRA BKN030 OVC050 WS020/30045KT
     FM301400 24014G28KT 1 1/2SM -RASN BKN010 OVC025
     FM301600 34018G28KT P6SM FEW040 BKN060
     FM310200 35012KT P6SM SCT050=

USA.gov is the U.S. government's official web portal to all federal, state and local government web resources and services.